Terminal Aerodrome Forecast
Issued by NWS Tulsa, OK

Home | Current Version | Previous Version | Text Only | Print | Product List | Glossary On
Versions: 1 2 3 4 5 6 7 8 9 10 11 12 13 14
000
FTUS44 KTSA 060800 AAA
TAFTUL
TAF AMD
KTUL 060818Z 0608/0706 17015G25KT P6SM -SHRA OVC110
      TEMPO 0608/0610 3SM -TSRA BR BKN015CB
     FM061000 16012KT 5SM -TSRA BR OVC025CB
     FM061900 16018G27KT P6SM VCTS OVC035CB
     FM070000 15015G24KT P6SM OVC050=

USA.gov is the U.S. government's official web portal to all federal, state and local government web resources and services.